M I D A S
Marine Information and Data Acquisition System
Tripno 1466 of the Zeeleeuw from 2008-04-25 06:40:08 to 2008-04-25 13:13:30
Back to CruiseResearch ActivitiesStationsMapUnderway DataData graphs

EquipmentUnitsComments
TimeDGPSUTC
LatitudeDGPSDM.mWGS84
LongitudeDGPSDM.mWGS84
SpeedMeteo Stationm/sRelative wind speed
DirectionMeteo StationdegRelative wind direction
TemperatureMeteo Stationdeg CelciusAir temperature
PressureMeteo StationPaAtmospheric pressure
HumidityMeteo Station%Relative humidity
Missing or incorrect values are displayed as -999
Metereological data collected by the RV Zeeleeuw from 2008-04-25 06:36:28 to 2008-04-25 13:23:19
Time Latitude Longitude Speed Direction Temperature Pressure Humidity
2008-04-25 06:37 51°13.68 2°55.883 -999 -999 -999 -999 -999
2008-04-25 06:38 51°13.693 2°55.788 -999 -999 -999 -999 -999
2008-04-25 06:39 51°13.695 2°55.73 -999 -999 -999 -999 -999
2008-04-25 06:40 51°13.698 2°55.721 -999 -999 -999 -999 -999
2008-04-25 06:41 51°13.744 2°55.706 4 26 -999 -999 -999
2008-04-25 06:42 51°13.84 2°55.635 2.9 332 10.3 102680 86
2008-04-25 06:43 51°13.944 2°55.56 4.3 20 10.3 102680 86
2008-04-25 06:44 51°14.042 2°55.491 5.2 20 10.4 102680 86
2008-04-25 06:45 51°14.148 2°55.412 5.3 316 10.4 102680 87
2008-04-25 06:46 51°14.255 2°55.293 8.2 25 10.4 102670 87
2008-04-25 06:47 51°14.324 2°55.157 5.8 27 10.3 102680 87
2008-04-25 06:48 51°14.388 2°55.023 9.9 25 10.3 102680 88
2008-04-25 06:49 51°14.492 2°54.863 10.2 22 10.3 102670 88
2008-04-25 06:50 51°14.645 2°54.72 9.3 25 10.3 102660 89
2008-04-25 06:51 51°14.82 2°54.561 10.6 27 10.2 102660 89
2008-04-25 06:52 51°14.99 2°54.376 10.1 22 10.2 102670 89
2008-04-25 06:53 51°15.162 2°54.209 10 21 10.2 102660 89
2008-04-25 06:54 51°15.352 2°54.129 10.7 20 10.2 102670 90
2008-04-25 06:55 51°15.536 2°54.011 12 27 10.2 102660 90
2008-04-25 06:56 51°15.71 2°53.856 11.1 22 10.1 102660 90
2008-04-25 06:57 51°15.882 2°53.7 10.3 24 10.1 102660 90
2008-04-25 06:58 51°16.062 2°53.537 11.3 27 10.1 102670 90
2008-04-25 06:59 51°16.241 2°53.374 10 25 10.1 102660 90
2008-04-25 07:00 51°16.414 2°53.206 11.7 21 10.1 102670 91
2008-04-25 07:01 51°16.606 2°53.07 11.3 26 10.1 102670 91
2008-04-25 07:02 51°16.795 2°52.935 9.3 24 10.1 102680 91
2008-04-25 07:03 51°16.981 2°52.802 8.7 24 10 102670 91
2008-04-25 07:04 51°17.172 2°52.686 10.2 23 10.1 102670 91
2008-04-25 07:05 51°17.374 2°52.634 8.9 24 10.1 102680 91
2008-04-25 07:06 51°17.573 2°52.572 7.9 27 10.1 102670 91
2008-04-25 07:07 51°17.774 2°52.533 7.5 22 10.1 102680 91
2008-04-25 07:08 51°17.977 2°52.507 8.6 19 10.1 102690 91
2008-04-25 07:09 51°18.177 2°52.519 5.9 24 10.1 102680 91
2008-04-25 07:10 51°18.312 2°52.728 1.5 318 10.1 102700 92
2008-04-25 07:11 51°18.376 2°53.011 0.8 336 10.1 102700 92
2008-04-25 07:12 51°18.453 2°53.297 1.7 22 10.1 102700 92
2008-04-25 07:13 51°18.537 2°53.572 2.2 21 10.2 102700 92
2008-04-25 07:14 51°18.625 2°53.846 2 27 10.2 102700 92
2008-04-25 07:15 51°18.713 2°54.119 1.7 20 10.2 102700 92
2008-04-25 07:16 51°18.804 2°54.393 1.5 22 10.2 102700 92
2008-04-25 07:17 51°18.89 2°54.668 2.7 24 10.2 102700 91
2008-04-25 07:18 51°18.981 2°54.939 2.2 246 10.2 102700 91
2008-04-25 07:19 51°19.074 2°55.206 2.7 248 10.2 102700 91
2008-04-25 07:20 51°19.163 2°55.477 2.3 25 10.2 102700 91
2008-04-25 07:21 51°19.241 2°55.755 1.5 28 10.2 102700 91
2008-04-25 07:22 51°19.311 2°56.038 1.3 315 10.3 102710 91
2008-04-25 07:23 51°19.378 2°56.321 1.4 259 10.3 102710 91
2008-04-25 07:24 51°19.455 2°56.599 1.9 259 10.3 102720 91
2008-04-25 07:25 51°19.529 2°56.877 1 265 10.3 102720 91
2008-04-25 07:26 51°19.598 2°57.158 1.8 25 10.3 102720 91
2008-04-25 07:27 51°19.663 2°57.439 1 21 10.4 102730 91
2008-04-25 07:28 51°19.73 2°57.721 1.4 25 10.4 102730 91
2008-04-25 07:29 51°19.799 2°57.999 0.5 26 10.4 102730 91
2008-04-25 07:30 51°19.863 2°58.278 0.8 321 10.4 102730 90
2008-04-25 07:31 51°19.936 2°58.553 1.1 317 10.5 102730 91
2008-04-25 07:32 51°20.005 2°58.829 0.8 253 10.5 102740 90
2008-04-25 07:33 51°20.075 2°59.103 1 18 10.6 102740 90
2008-04-25 07:34 51°20.142 2°59.38 0.8 263 10.7 102740 90
2008-04-25 07:35 51°20.2 2°59.661 0.5 27 10.7 102740 90
2008-04-25 07:36 51°20.258 2°59.943 0.4 18 10.7 102750 90
2008-04-25 07:37 51°20.315 3°0.226 0.5 17 10.8 102750 89
2008-04-25 07:38 51°20.378 3°0.505 1.1 348 10.9 102740 90
2008-04-25 07:39 51°20.438 3°0.787 0.8 31 11 102750 89
2008-04-25 07:40 51°20.5 3°1.07 0.8 245 11.1 102750 89
2008-04-25 07:41 51°20.562 3°1.354 0.5 263 11.2 102750 89
2008-04-25 07:42 51°20.633 3°1.633 1 268 11.2 102760 88
2008-04-25 07:43 51°20.703 3°1.912 1 323 11.3 102750 87
2008-04-25 07:44 51°20.761 3°2.197 1.3 316 11.3 102760 87
2008-04-25 07:45 51°20.83 3°2.476 0.4 28 11.3 102750 87
2008-04-25 07:46 51°20.892 3°2.754 0.9 27 11.4 102750 87
2008-04-25 07:47 51°20.956 3°3.027 0.5 270 11.4 102750 86
2008-04-25 07:48 51°21.014 3°3.303 0.3 21 11.4 102750 85
2008-04-25 07:49 51°21.069 3°3.585 0.9 252 11.4 102750 84
2008-04-25 07:50 51°21.148 3°3.848 1.2 246 11.4 102760 84
2008-04-25 07:51 51°21.229 3°4.108 0.8 264 11.4 102760 84
2008-04-25 07:52 51°21.294 3°4.379 1.1 21 11.4 102760 83
2008-04-25 07:53 51°21.366 3°4.644 1.1 270 11.3 102760 83
2008-04-25 07:54 51°21.435 3°4.914 1.1 26 11.2 102760 83
2008-04-25 07:55 51°21.496 3°5.189 0.9 28 11.2 102760 83
2008-04-25 07:56 51°21.559 3°5.459 0.4 20 11.3 102760 84
2008-04-25 07:57 51°21.621 3°5.73 0.7 332 11.3 102760 84
2008-04-25 07:58 51°21.688 3°5.995 0.2 25 11.3 102760 84
2008-04-25 07:59 51°21.751 3°6.262 0.1 9 11.4 102760 83
2008-04-25 08:00 51°21.819 3°6.53 0.7 26 11.4 102760 84
2008-04-25 08:01 51°21.885 3°6.795 0.4 32 11.5 102770 83
2008-04-25 08:02 51°21.907 3°7.071 2.3 12 11.4 102770 81
2008-04-25 08:03 51°21.916 3°7.313 1.8 41 11.2 102770 81
2008-04-25 08:04 51°21.923 3°7.492 2.6 44 11 102770 83
2008-04-25 08:05 51°21.928 3°7.689 2.4 24 10.8 102770 84
2008-04-25 08:06 51°21.939 3°7.957 1.8 20 10.7 102770 85
2008-04-25 08:07 51°21.942 3°8.236 2.2 22 10.6 102770 86
2008-04-25 08:08 51°21.945 3°8.517 2.1 16 10.5 102770 86
2008-04-25 08:09 51°21.948 3°8.799 2.1 23 10.5 102770 87
2008-04-25 08:10 51°21.935 3°8.983 4.9 32 10.4 102770 88
2008-04-25 08:11 51°21.868 3°9.002 5.4 5 10.3 102750 88
2008-04-25 08:12 51°21.817 3°8.97 5.1 4 10.3 102750 89
2008-04-25 08:13 51°21.77 3°8.929 7.3 352 10.2 102750 90
2008-04-25 08:14 51°21.714 3°8.849 8.2 341 10.1 102750 90
2008-04-25 08:15 51°21.672 3°8.735 7.6 324 10.1 102750 91
2008-04-25 08:16 51°21.655 3°8.62 8.5 322 10.2 102750 91
2008-04-25 08:17 51°21.643 3°8.507 7.3 320 10.2 102750 92
2008-04-25 08:18 51°21.635 3°8.395 7.5 23 10.3 102750 91
2008-04-25 08:19 51°21.635 3°8.288 9 23 10.3 102750 91
2008-04-25 08:20 51°21.635 3°8.18 9.6 23 10.3 102750 90
2008-04-25 08:21 51°21.635 3°8.073 9 28 10.3 102760 90
2008-04-25 08:22 51°21.645 3°7.973 8.4 23 10.2 102760 89
2008-04-25 08:23 51°21.661 3°7.876 7.4 25 10.3 102760 90
2008-04-25 08:24 51°21.677 3°7.779 8.3 25 10.4 102770 90
2008-04-25 08:25 51°21.694 3°7.684 9.2 28 10.5 102770 89
2008-04-25 08:26 51°21.711 3°7.589 7.9 24 10.5 102770 89
2008-04-25 08:27 51°21.728 3°7.494 8.1 25 10.5 102770 89
2008-04-25 08:28 51°21.745 3°7.398 9.7 20 10.6 102780 89
2008-04-25 08:29 51°21.766 3°7.308 9.9 25 10.6 102770 88
2008-04-25 08:30 51°21.786 3°7.219 7.4 22 10.7 102780 88
2008-04-25 08:31 51°21.806 3°7.128 8.5 24 10.7 102780 88
2008-04-25 08:32 51°21.826 3°7.036 6.8 21 10.8 102780 88
2008-04-25 08:33 51°21.846 3°6.942 8.5 21 10.8 102780 87
2008-04-25 08:34 51°21.866 3°6.846 9.3 20 10.8 102790 87
2008-04-25 08:35 51°21.888 3°6.755 9.1 26 10.7 102780 87
2008-04-25 08:36 51°21.907 3°6.659 8 20 10.7 102790 87
2008-04-25 08:37 51°21.929 3°6.563 8.4 23 10.7 102790 86
2008-04-25 08:38 51°21.953 3°6.471 7.7 23 10.7 102790 87
2008-04-25 08:39 51°21.976 3°6.379 9.1 22 10.6 102790 87
2008-04-25 08:40 51°22.001 3°6.288 8.3 21 10.6 102790 87
2008-04-25 08:41 51°22.027 3°6.202 7.5 245 10.6 102790 88
2008-04-25 08:42 51°22.055 3°6.12 7.7 26 10.5 102790 88
2008-04-25 08:43 51°22.084 3°6.051 8.5 259 10.5 102790 88
2008-04-25 08:44 51°22.11 3°6.035 6.2 23 10.5 102800 88
2008-04-25 08:45 51°22.118 3°6.037 5.2 20 10.3 102800 88
2008-04-25 08:46 51°22.122 3°6.032 7.2 21 10.2 102800 88
2008-04-25 08:47 51°22.123 3°6.02 6.9 22 10.2 102800 89
2008-04-25 08:48 51°22.125 3°6 7.9 24 10.2 102800 90
2008-04-25 08:49 51°22.153 3°5.954 8.8 21 10.2 102800 90
2008-04-25 08:50 51°22.155 3°5.832 9.1 329 10.3 102790 90
2008-04-25 08:51 51°22.12 3°5.66 9.8 331 10.3 102800 90
2008-04-25 08:52 51°22.076 3°5.458 12.3 331 10.2 102790 90
2008-04-25 08:53 51°22.011 3°5.198 12.2 332 10.2 102790 89
2008-04-25 08:54 51°21.926 3°4.878 14.5 333 10.2 102780 90
2008-04-25 08:55 51°21.833 3°4.542 13.4 332 10.2 102780 90
2008-04-25 08:56 51°21.736 3°4.21 13.7 333 10.2 102780 90
2008-04-25 08:57 51°21.63 3°3.885 13.6 334 10.2 102790 90
2008-04-25 08:58 51°21.521 3°3.564 12.8 333 10.1 102790 90
2008-04-25 08:59 51°21.415 3°3.239 13.9 332 10.2 102790 90
2008-04-25 09:00 51°21.314 3°2.908 13.2 331 10.2 102790 90
2008-04-25 09:01 51°21.219 3°2.571 13.3 334 10.2 102790 91
2008-04-25 09:02 51°21.123 3°2.236 13.1 332 10.2 102800 90
2008-04-25 09:03 51°21.024 3°1.903 13.2 332 10.2 102790 90
2008-04-25 09:04 51°20.924 3°1.572 13.5 332 10.2 102800 91
2008-04-25 09:05 51°20.825 3°1.242 13.1 332 10.2 102800 91
2008-04-25 09:06 51°20.725 3°0.911 12.7 332 10.2 102800 90
2008-04-25 09:07 51°20.625 3°0.582 12.6 333 10.2 102800 91
2008-04-25 09:08 51°20.525 3°0.254 14.3 333 10.2 102800 91
2008-04-25 09:09 51°20.425 2°59.925 12.3 333 10.1 102810 91
2008-04-25 09:10 51°20.324 2°59.597 13.2 334 10.1 102800 91
2008-04-25 09:11 51°20.223 2°59.268 15.1 332 10.1 102810 91
2008-04-25 09:12 51°20.122 2°58.94 14.7 331 10.1 102810 90
2008-04-25 09:13 51°20.02 2°58.612 12.3 333 10.1 102810 90
2008-04-25 09:14 51°19.919 2°58.285 13.8 333 10.1 102810 90
2008-04-25 09:15 51°19.818 2°57.958 14.1 333 10.2 102800 91
2008-04-25 09:16 51°19.717 2°57.631 14.2 332 10.2 102820 91
2008-04-25 09:17 51°19.615 2°57.303 12.8 332 10.2 102820 91
2008-04-25 09:18 51°19.512 2°56.975 14.1 333 10.2 102820 91
2008-04-25 09:19 51°19.403 2°56.651 12.6 333 10.1 102810 91
2008-04-25 09:20 51°19.3 2°56.321 14.1 331 10.1 102820 90
2008-04-25 09:21 51°19.199 2°55.987 13.1 333 10.1 102820 90
2008-04-25 09:22 51°19.096 2°55.654 12.6 332 10.1 102810 91
2008-04-25 09:23 51°18.992 2°55.32 11.8 333 10.1 102820 91
2008-04-25 09:24 51°18.888 2°54.987 13.8 333 10.1 102830 91
2008-04-25 09:25 51°18.783 2°54.656 12.5 333 10.1 102830 90
2008-04-25 09:26 51°18.678 2°54.324 12.1 332 10.1 102830 91
2008-04-25 09:27 51°18.573 2°53.992 14 333 10.2 102830 91
2008-04-25 09:28 51°18.462 2°53.667 13.2 334 10.2 102830 91
2008-04-25 09:29 51°18.346 2°53.35 13.2 333 10.1 102830 90
2008-04-25 09:30 51°18.234 2°53.029 13.7 332 10.2 102830 91
2008-04-25 09:31 51°18.123 2°52.708 13.6 332 10.1 102830 91
2008-04-25 09:32 51°17.979 2°52.433 13 341 10.1 102810 90
2008-04-25 09:33 51°17.778 2°52.269 12.5 342 10.1 102810 90
2008-04-25 09:34 51°17.565 2°52.152 11.8 348 10.1 102820 90
2008-04-25 09:35 51°17.351 2°52.049 11.9 345 10 102810 90
2008-04-25 09:36 51°17.162 2°51.856 11.6 339 10.1 102820 91
2008-04-25 09:37 51°16.98 2°51.647 12.7 338 10.2 102820 91
2008-04-25 09:38 51°16.802 2°51.431 13.1 338 10.2 102820 91
2008-04-25 09:39 51°16.626 2°51.208 12.2 341 10.2 102820 90
2008-04-25 09:40 51°16.45 2°50.986 12.5 339 10.3 102820 90
2008-04-25 09:41 51°16.275 2°50.769 12.6 338 10.3 102820 89
2008-04-25 09:42 51°16.157 2°50.479 14.2 332 10.3 102840 90
2008-04-25 09:43 51°16.05 2°50.173 13 333 10.2 102830 90
2008-04-25 09:44 51°15.929 2°49.878 12.8 335 10.2 102840 89
2008-04-25 09:45 51°15.801 2°49.59 12.7 336 10.2 102830 89
2008-04-25 09:46 51°15.661 2°49.313 12.9 336 10.2 102830 90
2008-04-25 09:47 51°15.525 2°49.032 13.5 336 10.2 102820 89
2008-04-25 09:48 51°15.387 2°48.747 12.4 336 10.3 102830 89
2008-04-25 09:49 51°15.266 2°48.444 13.7 334 10.3 102830 89
2008-04-25 09:50 51°15.155 2°48.129 12.4 335 10.3 102830 89
2008-04-25 09:51 51°15.038 2°47.817 12.7 334 10.3 102830 89
2008-04-25 09:52 51°14.921 2°47.506 13.5 334 10.3 102830 89
2008-04-25 09:53 51°14.803 2°47.196 11.6 335 10.3 102840 89
2008-04-25 09:54 51°14.684 2°46.887 12.2 334 10.3 102830 89
2008-04-25 09:55 51°14.562 2°46.578 13.3 334 10.3 102840 89
2008-04-25 09:56 51°14.44 2°46.268 12.7 334 10.3 102830 89
2008-04-25 09:57 51°14.318 2°45.958 13.5 335 10.3 102830 89
2008-04-25 09:58 51°14.204 2°45.639 12.3 334 10.3 102840 89
2008-04-25 09:59 51°14.08 2°45.332 13.7 335 10.4 102830 89
2008-04-25 10:00 51°13.966 2°45.018 12.8 334 10.3 102840 88
2008-04-25 10:01 51°13.854 2°44.701 13.2 333 10.4 102830 89
2008-04-25 10:02 51°13.754 2°44.378 12.5 332 10.4 102840 88
2008-04-25 10:03 51°13.655 2°44.057 12.9 332 10.4 102830 89
2008-04-25 10:04 51°13.538 2°43.759 13.6 334 10.4 102840 89
2008-04-25 10:05 51°13.422 2°43.459 12.2 333 10.4 102840 89
2008-04-25 10:06 51°13.307 2°43.157 12.1 334 10.3 102830 89
2008-04-25 10:07 51°13.195 2°42.854 11.9 332 10.3 102830 89
2008-04-25 10:08 51°13.081 2°42.55 13 332 10.3 102840 89
2008-04-25 10:09 51°12.975 2°42.239 13.1 332 10.3 102840 89
2008-04-25 10:10 51°12.868 2°41.927 12.7 332 10.4 102840 89
2008-04-25 10:11 51°12.76 2°41.617 11.8 332 10.4 102840 89
2008-04-25 10:12 51°12.65 2°41.308 12.9 333 10.4 102830 89
2008-04-25 10:13 51°12.537 2°41 12.6 333 10.4 102830 89
2008-04-25 10:14 51°12.418 2°40.699 11.5 334 10.4 102830 89
2008-04-25 10:15 51°12.296 2°40.403 12.2 334 10.4 102830 90
2008-04-25 10:16 51°12.176 2°40.106 12.4 334 10.4 102840 90
2008-04-25 10:17 51°12.058 2°39.807 13.7 335 10.4 102830 90
2008-04-25 10:18 51°11.941 2°39.508 11.9 335 10.4 102840 90
2008-04-25 10:19 51°11.835 2°39.199 12.9 333 10.4 102840 90
2008-04-25 10:20 51°11.728 2°38.891 12.4 334 10.4 102840 91
2008-04-25 10:21 51°11.619 2°38.584 11.6 334 10.4 102830 91
2008-04-25 10:22 51°11.508 2°38.278 13.6 333 10.4 102840 91
2008-04-25 10:23 51°11.388 2°37.983 12.4 334 10.4 102830 91
2008-04-25 10:24 51°11.276 2°37.678 11.9 334 10.3 102830 92
2008-04-25 10:25 51°11.165 2°37.372 12.3 333 10.3 102830 92
2008-04-25 10:26 51°11.048 2°37.069 13.4 337 10.4 102830 92
2008-04-25 10:27 51°10.924 2°36.774 13.1 333 10.4 102830 92
2008-04-25 10:28 51°10.804 2°36.474 14.5 336 10.4 102830 93
2008-04-25 10:29 51°10.671 2°36.193 11.9 341 10.4 102820 93
2008-04-25 10:30 51°10.487 2°35.992 12.8 341 10.4 102820 93
2008-04-25 10:31 51°10.299 2°35.802 11.6 342 10.4 102820 93
2008-04-25 10:32 51°10.107 2°35.625 11.7 344 10.3 102820 93
2008-04-25 10:33 51°9.915 2°35.447 11.7 345 10.3 102820 93
2008-04-25 10:34 51°9.711 2°35.342 9.4 351 10.3 102830 93
2008-04-25 10:35 51°9.497 2°35.379 9.5 355 10.2 102840 94
2008-04-25 10:36 51°9.282 2°35.413 9.4 357 10.2 102840 94
2008-04-25 10:37 51°9.092 2°35.44 7.8 358 10.2 102840 94
2008-04-25 10:38 51°9.003 2°35.403 7.8 355 10.2 102850 94
2008-04-25 10:39 51°8.966 2°35.352 7.9 351 10.2 102840 94
2008-04-25 10:40 51°8.938 2°35.31 6.7 352 10.2 102850 94
2008-04-25 10:41 51°8.914 2°35.274 5.9 353 10.2 102850 94
2008-04-25 10:42 51°8.889 2°35.242 5.8 355 10.2 102850 94
2008-04-25 10:43 51°8.864 2°35.206 6.8 353 10.2 102850 94
2008-04-25 10:44 51°8.823 2°35.113 7.3 336 10.2 102850 94
2008-04-25 10:45 51°8.8 2°34.972 9.2 327 10.3 102850 94
2008-04-25 10:46 51°8.801 2°34.847 9 322 10.4 102850 94
2008-04-25 10:47 51°8.802 2°34.741 8.2 324 10.5 102850 94
2008-04-25 10:48 51°8.799 2°34.642 8.5 329 10.6 102860 93
2008-04-25 10:49 51°8.79 2°34.546 8.4 332 10.6 102860 92
2008-04-25 10:50 51°8.776 2°34.452 8.6 331 10.6 102860 92
2008-04-25 10:51 51°8.76 2°34.358 8.6 334 10.6 102860 92
2008-04-25 10:52 51°8.747 2°34.262 8.1 331 10.6 102860 92
2008-04-25 10:53 51°8.735 2°34.167 9.5 328 10.6 102860 92
2008-04-25 10:54 51°8.724 2°34.072 8.7 328 10.6 102860 92
2008-04-25 10:55 51°8.716 2°33.982 9.5 328 10.6 102850 92
2008-04-25 10:56 51°8.711 2°33.893 8.6 327 10.6 102860 92
2008-04-25 10:57 51°8.709 2°33.804 8.7 325 10.6 102860 92
2008-04-25 10:58 51°8.709 2°33.716 7.9 322 10.7 102860 91
2008-04-25 10:59 51°8.711 2°33.628 7.5 323 10.7 102860 91
2008-04-25 11:00 51°8.713 2°33.542 7.8 321 10.7 102850 91
2008-04-25 11:01 51°8.713 2°33.455 7.3 327 10.7 102860 91
2008-04-25 11:02 51°8.706 2°33.367 8.1 330 10.7 102860 91
2008-04-25 11:03 51°8.694 2°33.277 8.3 333 10.7 102860 91
2008-04-25 11:04 51°8.675 2°33.188 9 334 10.7 102860 91
2008-04-25 11:05 51°8.648 2°33.104 7.6 342 10.7 102860 91
2008-04-25 11:06 51°8.612 2°33.026 7.5 343 10.6 102850 91
2008-04-25 11:07 51°8.575 2°32.95 7.6 347 10.5 102860 92
2008-04-25 11:08 51°8.535 2°32.877 7.9 348 10.4 102860 92
2008-04-25 11:09 51°8.495 2°32.808 7.2 348 10.4 102860 92
2008-04-25 11:10 51°8.453 2°32.739 7.7 348 10.4 102850 93
2008-04-25 11:11 51°8.414 2°32.668 8.4 344 10.3 102850 93
2008-04-25 11:12 51°8.38 2°32.591 8.5 341 10.3 102850 93
2008-04-25 11:13 51°8.353 2°32.512 7.2 337 10.4 102850 94
2008-04-25 11:14 51°8.336 2°32.429 9 325 10.5 102850 93
2008-04-25 11:15 51°8.343 2°32.359 6.8 27 10.6 102850 93
2008-04-25 11:16 51°8.361 2°32.322 7.8 249 10.7 102850 93
2008-04-25 11:17 51°8.37 2°32.296 7.5 249 10.7 102850 92
2008-04-25 11:18 51°8.372 2°32.273 6.8 21 10.8 102850 92
2008-04-25 11:19 51°8.369 2°32.252 7.8 23 10.9 102860 92
2008-04-25 11:20 51°8.364 2°32.235 8.2 244 10.9 102850 92
2008-04-25 11:21 51°8.357 2°32.222 6.2 248 10.9 102850 91
2008-04-25 11:22 51°8.374 2°32.208 3.8 264 11 102850 91
2008-04-25 11:23 51°8.402 2°32.276 3 25 10.9 102850 90
2008-04-25 11:24 51°8.458 2°32.444 2.2 262 10.9 102850 90
2008-04-25 11:25 51°8.537 2°32.697 1.8 255 10.9 102850 91
2008-04-25 11:26 51°8.615 2°32.972 1.8 26 11 102850 91
2008-04-25 11:27 51°8.693 2°33.248 2.2 21 11.1 102850 91
2008-04-25 11:28 51°8.768 2°33.528 2.1 22 11.1 102850 91
2008-04-25 11:29 51°8.85 2°33.802 2.3 248 11.2 102860 90
2008-04-25 11:30 51°8.928 2°34.079 2.2 247 11.2 102850 90
2008-04-25 11:31 51°9.004 2°34.358 2.3 255 11.3 102850 90
2008-04-25 11:32 51°9.079 2°34.638 1.9 252 11.3 102850 90
2008-04-25 11:33 51°9.159 2°34.91 2.3 251 11.4 102850 89
2008-04-25 11:34 51°9.239 2°35.191 2.4 20 11.4 102850 89
2008-04-25 11:35 51°9.316 2°35.471 2.5 27 11.5 102850 89
2008-04-25 11:36 51°9.397 2°35.743 2.4 27 11.5 102850 88
2008-04-25 11:37 51°9.479 2°36.015 2.6 245 11.5 102850 88
2008-04-25 11:38 51°9.557 2°36.292 2.8 20 11.5 102850 88
2008-04-25 11:39 51°9.635 2°36.568 2.8 20 11.5 102850 88
2008-04-25 11:40 51°9.714 2°36.843 2.3 27 11.5 102860 87
2008-04-25 11:41 51°9.789 2°37.122 2.6 22 11.5 102850 87
2008-04-25 11:42 51°9.87 2°37.397 2.6 19 11.5 102850 87
2008-04-25 11:43 51°9.946 2°37.676 2.3 20 11.5 102850 87
2008-04-25 11:44 51°10.024 2°37.955 2.8 25 11.5 102860 87
2008-04-25 11:45 51°10.105 2°38.233 2 243 11.5 102850 87
2008-04-25 11:46 51°10.179 2°38.517 1.7 26 11.5 102860 87
2008-04-25 11:47 51°10.262 2°38.793 2.3 245 11.5 102860 87
2008-04-25 11:48 51°10.357 2°39.01 9.2 264 11.5 102860 87
2008-04-25 11:49 51°10.439 2°38.883 8.5 319 11.3 102840 87
2008-04-25 11:50 51°10.474 2°38.643 10.5 327 11.2 102840 87
2008-04-25 11:51 51°10.488 2°38.387 10.8 328 11.2 102840 88
2008-04-25 11:52 51°10.505 2°38.129 8.3 326 11.1 102830 88
2008-04-25 11:53 51°10.523 2°37.877 9.9 324 11.1 102850 89
2008-04-25 11:54 51°10.535 2°37.626 9.4 325 11 102840 89
2008-04-25 11:55 51°10.548 2°37.379 8.7 325 11 102830 90
2008-04-25 11:56 51°10.559 2°37.133 8.3 326 11 102830 90
2008-04-25 11:57 51°10.563 2°36.944 9 323 11 102840 90
2008-04-25 11:58 51°10.565 2°36.788 8.3 322 11 102840 90
2008-04-25 11:59 51°10.566 2°36.639 6.9 322 11 102840 90
2008-04-25 12:00 51°10.567 2°36.492 8.1 322 11 102840 90
2008-04-25 12:01 51°10.567 2°36.348 6.9 322 11 102840 90
2008-04-25 12:02 51°10.567 2°36.197 8.9 321 11 102850 91
2008-04-25 12:03 51°10.568 2°36.05 7.7 322 11 102850 90
2008-04-25 12:04 51°10.57 2°35.902 7.9 322 11 102850 90
2008-04-25 12:05 51°10.572 2°35.756 8.7 323 11.1 102850 91
2008-04-25 12:06 51°10.575 2°35.611 8.8 323 11.1 102850 90
2008-04-25 12:07 51°10.53 2°35.491 8.7 351 11 102850 90
2008-04-25 12:08 51°10.385 2°35.529 7.8 359 10.9 102840 90
2008-04-25 12:09 51°10.212 2°35.711 5.8 1 10.7 102850 91
2008-04-25 12:10 51°10.062 2°35.952 4.5 2 10.6 102850 92
2008-04-25 12:11 51°9.983 2°36.258 1.5 7 10.5 102860 92
2008-04-25 12:12 51°10.019 2°36.575 2 27 10.6 102860 93
2008-04-25 12:13 51°10.071 2°36.892 1.9 20 10.7 102870 94
2008-04-25 12:14 51°10.119 2°37.209 1.7 27 10.8 102870 94
2008-04-25 12:15 51°10.162 2°37.528 1.7 250 11 102870 94
2008-04-25 12:16 51°10.211 2°37.844 2.3 28 11.1 102870 94
2008-04-25 12:17 51°10.256 2°38.162 1.7 318 11.2 102870 93
2008-04-25 12:18 51°10.301 2°38.483 2.3 29 11.3 102870 93
2008-04-25 12:19 51°10.352 2°38.799 1 26 11.4 102870 92
2008-04-25 12:20 51°10.408 2°39.111 2.4 19 11.5 102860 92
2008-04-25 12:21 51°10.461 2°39.426 2.1 21 11.6 102870 91
2008-04-25 12:22 51°10.524 2°39.736 2.3 19 11.6 102860 90
2008-04-25 12:23 51°10.583 2°40.049 2.9 27 11.6 102860 90
2008-04-25 12:24 51°10.643 2°40.361 2.6 29 11.6 102870 89
2008-04-25 12:25 51°10.703 2°40.674 2.5 23 11.6 102870 89
2008-04-25 12:26 51°10.76 2°40.99 3.6 25 11.6 102870 89
2008-04-25 12:27 51°10.82 2°41.3 1.3 21 11.6 102870 88
2008-04-25 12:28 51°10.862 2°41.617 3.1 244 11.6 102870 88
2008-04-25 12:29 51°10.933 2°41.92 3.2 24 11.6 102870 88
2008-04-25 12:30 51°11.002 2°42.227 3.6 245 11.6 102870 87
2008-04-25 12:31 51°11.064 2°42.54 2.9 245 11.7 102870 87
2008-04-25 12:32 51°11.13 2°42.85 2.7 20 11.7 102860 87
2008-04-25 12:33 51°11.192 2°43.163 3.2 26 11.6 102860 87
2008-04-25 12:34 51°11.257 2°43.477 3.1 251 11.6 102870 87
2008-04-25 12:35 51°11.321 2°43.791 2.6 19 11.5 102870 87
2008-04-25 12:36 51°11.377 2°44.11 2.3 25 11.5 102870 87
2008-04-25 12:37 51°11.442 2°44.427 2.9 25 11.5 102860 87
2008-04-25 12:38 51°11.503 2°44.747 2.9 27 11.6 102870 87
2008-04-25 12:39 51°11.568 2°45.066 3.1 19 11.6 102860 87
2008-04-25 12:40 51°11.629 2°45.385 2.9 29 11.6 102870 87
2008-04-25 12:41 51°11.69 2°45.703 2.7 19 11.5 102870 87
2008-04-25 12:42 51°11.757 2°46.013 2.8 28 11.5 102870 87
2008-04-25 12:43 51°11.834 2°46.318 3.6 29 11.5 102860 87
2008-04-25 12:44 51°11.918 2°46.619 3.4 28 11.5 102870 87
2008-04-25 12:45 51°12.012 2°46.914 3.5 21 11.5 102860 87
2008-04-25 12:46 51°12.104 2°47.209 3 21 11.5 102870 87
2008-04-25 12:47 51°12.195 2°47.506 3.3 26 11.5 102860 87
2008-04-25 12:48 51°12.299 2°47.793 3.7 26 11.4 102870 87
2008-04-25 12:49 51°12.395 2°48.08 3.1 24 11.4 102860 87
2008-04-25 12:50 51°12.489 2°48.37 2.7 21 11.4 102860 88
2008-04-25 12:51 51°12.59 2°48.656 3.2 19 11.4 102860 88
2008-04-25 12:52 51°12.688 2°48.944 3.9 20 11.4 102860 88
2008-04-25 12:53 51°12.787 2°49.232 3.1 26 11.4 102860 88
2008-04-25 12:54 51°12.891 2°49.519 3.4 19 11.4 102860 88
2008-04-25 12:55 51°12.994 2°49.808 3.8 24 11.4 102860 88
2008-04-25 12:56 51°13.101 2°50.094 3.5 20 11.4 102870 88
2008-04-25 12:57 51°13.204 2°50.385 2.7 19 11.3 102860 88
2008-04-25 12:58 51°13.302 2°50.682 2.5 28 11.3 102860 88
2008-04-25 12:59 51°13.402 2°50.978 2.8 20 11.3 102850 88
2008-04-25 13:00 51°13.506 2°51.27 3.1 21 11.3 102860 88
2008-04-25 13:01 51°13.612 2°51.561 2.5 20 11.3 102850 88
2008-04-25 13:02 51°13.722 2°51.846 3.8 22 11.3 102850 88
2008-04-25 13:03 51°13.828 2°52.134 3.1 27 11.3 102850 88
2008-04-25 13:04 51°13.936 2°52.421 3.2 25 11.4 102850 88
2008-04-25 13:05 51°14.045 2°52.708 3.2 25 11.4 102850 88
2008-04-25 13:06 51°14.179 2°52.966 4.3 23 11.4 102850 88
2008-04-25 13:07 51°14.329 2°53.203 5 21 11.4 102840 88
2008-04-25 13:08 51°14.457 2°53.469 2.3 29 11.4 102850 88
2008-04-25 13:09 51°14.53 2°53.78 2 343 11.4 102850 89
2008-04-25 13:10 51°14.508 2°54.112 3.4 358 11.4 102850 88
2008-04-25 13:11 51°14.483 2°54.442 2.6 356 11.2 102850 88
2008-04-25 13:12 51°14.439 2°54.768 3.2 5 11.1 102850 89
2008-04-25 13:13 51°14.37 2°55.018 4.9 10 11 102850 90
2008-04-25 13:14 51°14.274 2°55.227 4 14 10.9 102850 91
2008-04-25 13:15 51°14.161 2°55.374 3.3 4 10.9 102850 92
2008-04-25 13:16 51°14.06 2°55.456 2.5 335 11 102850 92
2008-04-25 13:17 51°13.971 2°55.523 3.3 22 11.1 102850 90
2008-04-25 13:18 51°13.899 2°55.578 5.7 13 11.2 102850 91
2008-04-25 13:19 51°13.799 2°55.658 2.7 335 11.4 102850 89
2008-04-25 13:20 51°13.733 2°55.752 2.4 22 11.5 102850 89
2008-04-25 13:21 51°13.683 2°55.868 2.9 19 11.7 102840 88
2008-04-25 13:22 51°13.667 2°55.944 3.5 40 11.7 102840 84